sensor_id;sensor_type;location;lat;lon;timestamp;pressure;altitude;pressure_sealevel;temperature;humidity
12073;BME280;6098;49.004;8.372;2023-03-03T00:11:00;100671.28;;;4.15;75.56
12073;BME280;6098;49.004;8.372;2023-03-03T00:25:50;100674.41;;;4.08;75.74
12073;BME280;6098;49.004;8.372;2023-03-03T00:40:40;100689.34;;;4.00;76.04
12073;BME280;6098;49.004;8.372;2023-03-03T00:55:31;100687.21;;;3.92;76.39
12073;BME280;6098;49.004;8.372;2023-03-03T01:10:20;100678.52;;;3.86;76.68
12073;BME280;6098;49.004;8.372;2023-03-03T01:25:10;100682.92;;;3.78;76.92
12073;BME280;6098;49.004;8.372;2023-03-03T01:40:06;100672.11;;;3.61;77.54
12073;BME280;6098;49.004;8.372;2023-03-03T01:54:56;100658.20;;;3.50;78.24
12073;BME280;6098;49.004;8.372;2023-03-03T02:24:59;100653.48;;;3.35;79.10
12073;BME280;6098;49.004;8.372;2023-03-03T02:39:49;100671.41;;;3.31;77.83
12073;BME280;6098;49.004;8.372;2023-03-03T02:54:39;100674.03;;;3.31;76.01
12073;BME280;6098;49.004;8.372;2023-03-03T03:09:29;100668.86;;;3.16;77.12
12073;BME280;6098;49.004;8.372;2023-03-03T03:24:21;100681.14;;;2.99;77.21
12073;BME280;6098;49.004;8.372;2023-03-03T03:39:12;100692.05;;;3.03;73.83
12073;BME280;6098;49.004;8.372;2023-03-03T03:54:01;100699.10;;;2.79;76.79
12073;BME280;6098;49.004;8.372;2023-03-03T04:08:50;100702.64;;;2.57;77.63
12073;BME280;6098;49.004;8.372;2023-03-03T04:23:40;100696.53;;;2.45;79.20
12073;BME280;6098;49.004;8.372;2023-03-03T04:38:30;100711.36;;;2.40;79.48
12073;BME280;6098;49.004;8.372;2023-03-03T04:53:20;100712.69;;;2.31;79.88
12073;BME280;6098;49.004;8.372;2023-03-03T05:08:10;100719.20;;;2.25;80.70
12073;BME280;6098;49.004;8.372;2023-03-03T05:23:00;100721.82;;;2.06;81.67
12073;BME280;6098;49.004;8.372;2023-03-03T05:37:51;100732.27;;;2.05;82.49
12073;BME280;6098;49.004;8.372;2023-03-03T05:52:41;100751.02;;;2.14;84.25
12073;BME280;6098;49.004;8.372;2023-03-03T06:07:31;100765.86;;;2.27;83.75
12073;BME280;6098;49.004;8.372;2023-03-03T06:22:22;100781.12;;;2.32;78.58
12073;BME280;6098;49.004;8.372;2023-03-03T06:37:13;100800.75;;;2.36;77.62
12073;BME280;6098;49.004;8.372;2023-03-03T07:06:55;100816.00;;;2.43;76.03
12073;BME280;6098;49.004;8.372;2023-03-03T07:21:45;100822.55;;;2.58;76.94
12073;BME280;6098;49.004;8.372;2023-03-03T07:36:35;100834.77;;;2.73;78.72
12073;BME280;6098;49.004;8.372;2023-03-03T07:51:38;100853.98;;;2.89;79.21
12073;BME280;6098;49.004;8.372;2023-03-03T08:06:39;100863.58;;;2.87;79.03
12073;BME280;6098;49.004;8.372;2023-03-03T08:21:29;100864.88;;;3.06;76.16
12073;BME280;6098;49.004;8.372;2023-03-03T08:36:19;100872.29;;;3.17;77.29
12073;BME280;6098;49.004;8.372;2023-03-03T08:51:09;100863.95;;;3.44;74.80
12073;BME280;6098;49.004;8.372;2023-03-03T09:06:00;100876.06;;;3.80;72.87
12073;BME280;6098;49.004;8.372;2023-03-03T09:20:52;100893.73;;;4.34;70.73
12073;BME280;6098;49.004;8.372;2023-03-03T09:35:42;100904.44;;;4.74;69.08
12073;BME280;6098;49.004;8.372;2023-03-03T10:05:55;100904.59;;;5.59;65.69
12073;BME280;6098;49.004;8.372;2023-03-03T10:21:01;100902.51;;;6.25;60.86
12073;BME280;6098;49.004;8.372;2023-03-03T11:06:28;100917.86;;;7.17;57.26
12073;BME280;6098;49.004;8.372;2023-03-03T12:21:42;100853.78;;;9.17;52.55
12073;BME280;6098;49.004;8.372;2023-03-03T12:36:53;100833.44;;;9.20;52.21
12073;BME280;6098;49.004;8.372;2023-03-03T12:52:03;100831.58;;;9.40;51.98
12073;BME280;6098;49.004;8.372;2023-03-03T13:06:52;100821.53;;;9.84;50.99
12073;BME280;6098;49.004;8.372;2023-03-03T13:21:54;100824.30;;;9.94;50.99
12073;BME280;6098;49.004;8.372;2023-03-03T13:36:54;100809.24;;;10.26;50.57
12073;BME280;6098;49.004;8.372;2023-03-03T13:51:49;100806.86;;;10.31;50.60
12073;BME280;6098;49.004;8.372;2023-03-03T14:06:38;100785.56;;;10.62;49.89
12073;BME280;6098;49.004;8.372;2023-03-03T14:36:24;100774.52;;;10.76;49.19
12073;BME280;6098;49.004;8.372;2023-03-03T16:07:28;100754.77;;;10.02;51.68
12073;BME280;6098;49.004;8.372;2023-03-03T16:22:39;100768.03;;;9.87;52.25
12073;BME280;6098;49.004;8.372;2023-03-03T16:37:37;100781.28;;;9.71;52.63
12073;BME280;6098;49.004;8.372;2023-03-03T16:52:31;100788.86;;;9.54;53.00
12073;BME280;6098;49.004;8.372;2023-03-03T17:07:21;100819.81;;;9.35;53.77
12073;BME280;6098;49.004;8.372;2023-03-03T17:37:40;100846.36;;;8.97;54.23
12073;BME280;6098;49.004;8.372;2023-03-03T18:22:48;100901.08;;;8.36;53.88
12073;BME280;6098;49.004;8.372;2023-03-03T18:37:42;100907.61;;;8.17;53.97
12073;BME280;6098;49.004;8.372;2023-03-03T18:52:32;100919.87;;;8.00;54.10
12073;BME280;6098;49.004;8.372;2023-03-03T19:07:25;100934.38;;;7.76;55.22
12073;BME280;6098;49.004;8.372;2023-03-03T19:22:24;100938.17;;;7.62;56.00
12073;BME280;6098;49.004;8.372;2023-03-03T19:52:38;100955.02;;;7.29;56.12
12073;BME280;6098;49.004;8.372;2023-03-03T20:08:02;100968.13;;;7.06;57.59
12073;BME280;6098;49.004;8.372;2023-03-03T20:38:38;100996.80;;;6.65;59.63
12073;BME280;6098;49.004;8.372;2023-03-03T20:53:38;101006.20;;;6.51;59.24
12073;BME280;6098;49.004;8.372;2023-03-03T21:23:40;101020.20;;;6.17;60.55
12073;BME280;6098;49.004;8.372;2023-03-03T21:38:30;101027.37;;;6.02;60.96
12073;BME280;6098;49.004;8.372;2023-03-03T21:53:35;101024.45;;;5.83;61.90
12073;BME280;6098;49.004;8.372;2023-03-03T22:08:26;101021.63;;;5.58;63.01
12073;BME280;6098;49.004;8.372;2023-03-03T22:23:23;101031.87;;;5.36;63.95
12073;BME280;6098;49.004;8.372;2023-03-03T22:53:02;101051.34;;;5.04;65.06
12073;BME280;6098;49.004;8.372;2023-03-03T23:07:52;101056.28;;;4.81;66.21
12073;BME280;6098;49.004;8.372;2023-03-03T23:22:42;101059.84;;;4.69;67.00
12073;BME280;6098;49.004;8.372;2023-03-03T23:37:31;101066.95;;;4.36;68.57
12073;BME280;6098;49.004;8.372;2023-03-03T23:52:22;101077.48;;;4.20;69.58
